Yukichifuku — JD3610 — position and weather

sailwx.info

Track history (hours):
 
Tides and Currents Weather Stations Pressure Air Temp Water Temp Dewpoint Dewpoint Depression Visibility Wind Speed Wind Dir Waves Ship Positions

Yukichifuku

Last reported at 2018-Jan-20 18:30 UTC. Time now 2018-Jan-20 18:33 UTC.
Position N 34°39' E 135°20'.

Length 49 m.

Type: Cargo ship. MMSI: 431005126.

Date/timePositionNaut miles runAvg speedWind from/ knotsBaromVisibWave heightAir tempDewpointWater temp
2018-Jan-20 18:30N 34°39' E 135°20'510.0
2018-Jan-20 18:00N 34°38' E 135°14'510.1
2018-Jan-20 17:30N 34°37' E 135°08'611.4
2018-Jan-20 17:00N 34°38' E 135°01'510.9
2018-Jan-20 16:30N 34°37' E 134°55'610.9
2018-Jan-20 15:59N 34°40' E 134°49'5 0.8
2018-Jan-20 10:05N 34°43' E 134°44'111.0
2018-Jan-20 09:59N 34°42' E 134°45'511.0
2018-Jan-20 09:30N 34°39' E 134°51'510.6
2018-Jan-20 09:00N 34°38' E 134°56'510.0
2018-Jan-20 08:30N 34°37' E 135°03'611.3
2018-Jan-20 08:00N 34°37' E 135°09'510.9
2018-Jan-20 07:30N 34°38' E 135°16'510.8
2018-Jan-20 07:00N 34°40' E 135°22'4 7.5
2018-Jan-20 06:27N 34°43' E 135°26'0 0.0
2018-Jan-20 05:58N 34°43' E 135°26'0 0.0
2018-Jan-20 05:28N 34°43' E 135°26'0 0.0
2018-Jan-20 04:58N 34°43' E 135°26'0 0.0
2018-Jan-20 04:28N 34°43' E 135°26'0 0.0
2018-Jan-20 03:58N 34°43' E 135°26'0 0.0
2018-Jan-20 03:20N 34°43' E 135°26'2 6.2
2018-Jan-20 03:00N 34°41' E 135°24'510.0
2018-Jan-20 02:30N 34°39' E 135°19'510.2
2018-Jan-20 02:00N 34°37' E 135°13'5 9.6
2018-Jan-20 01:30N 34°36' E 135°07'4 8.3
2018-Jan-20 01:00N 34°36' E 135°02'3 6.1
2018-Jan-20 00:30N 34°37' E 134°58'4 7.9
2018-Jan-20 00:00N 34°37' E 134°54'9 0.5
2018-Jan-19 05:35N 34°43' E 134°44'211.0
2018-Jan-19 05:25N 34°42' E 134°46'410.3
2018-Jan-19 05:00N 34°40' E 134°51'5 9.2
2018-Jan-19 04:30N 34°38' E 134°56'611.3
2018-Jan-19 04:00N 34°37' E 135°03'510.9
2018-Jan-19 03:30N 34°37' E 135°09'611.6
2018-Jan-19 03:00N 34°38' E 135°16'611.1
2018-Jan-19 02:30N 34°40' E 135°23'4 6.6
2018-Jan-19 01:57N 34°43' E 135°26'0 0.0
2018-Jan-19 01:30N 34°43' E 135°26'0 0.0
2018-Jan-19 00:56N 34°43' E 135°26'0 0.0
2018-Jan-19 00:29N 34°43' E 135°26'0 0.0
2018-Jan-18 23:59N 34°43' E 135°26'0 0.0
2018-Jan-18 23:29N 34°43' E 135°26'0 0.0
2018-Jan-18 22:59N 34°43' E 135°26'0 0.0
2018-Jan-18 22:26N 34°43' E 135°26'0 0.0
2018-Jan-18 21:56N 34°43' E 135°26'0 0.0
2018-Jan-18 21:29N 34°43' E 135°26'0 0.0
2018-Jan-18 20:59N 34°43' E 135°26'0 0.0
2018-Jan-18 20:26N 34°43' E 135°26'0 0.0
2018-Jan-18 19:59N 34°43' E 135°26'0 0.0
2018-Jan-18 19:29N 34°43' E 135°26'0 0.0
2018-Jan-18 18:59N 34°43' E 135°26'0 0.0
2018-Jan-18 18:26N 34°43' E 135°26'0 0.0
2018-Jan-18 17:59N 34°43' E 135°26'0 0.0
2018-Jan-18 17:29N 34°43' E 135°26'0 0.0
2018-Jan-18 16:59N 34°43' E 135°26'0 0.0
2018-Jan-18 16:29N 34°43' E 135°26'0 0.0
2018-Jan-18 15:53N 34°43' E 135°26'0 0.0
2018-Jan-18 15:29N 34°43' E 135°26'0 0.0
2018-Jan-18 14:59N 34°43' E 135°26'0 0.0
2018-Jan-18 14:29N 34°43' E 135°26'0 0.0
2018-Jan-18 13:59N 34°43' E 135°26'0 0.0
2018-Jan-18 13:26N 34°43' E 135°26'0 0.0
2018-Jan-18 12:59N 34°43' E 135°26'0 0.0
2018-Jan-18 12:29N 34°43' E 135°26'0 0.0
2018-Jan-18 11:59N 34°43' E 135°26'0 0.0
2018-Jan-18 11:29N 34°43' E 135°26'0 0.0
2018-Jan-18 10:55N 34°43' E 135°26'0 0.0
2018-Jan-18 10:28N 34°43' E 135°26'0 0.0
2018-Jan-18 10:00N 34°43' E 135°26'2 5.0
2018-Jan-18 09:30N 34°41' E 135°24'510.2
2018-Jan-18 09:00N 34°39' E 135°18'510.4
2018-Jan-18 08:30N 34°37' E 135°12'510.4
2018-Jan-18 08:00N 34°36' E 135°06'612.3
2018-Jan-18 07:30N 34°37' E 134°59'911.6
2018-Jan-18 06:46N 34°40' E 134°49'  
2018-Jan-12 14:59N 34°38' E 134°52'28 2.9
2018-Jan-12 05:10N 34°43' E 135°26'0 0.0
2018-Jan-12 04:58N 34°43' E 135°26'0 0.0
2018-Jan-12 04:23N 34°43' E 135°26'0 0.0
2018-Jan-12 03:53N 34°43' E 135°26'0 0.0
2018-Jan-12 03:29N 34°43' E 135°26'0 0.0
2018-Jan-12 02:59N 34°43' E 135°26'0 0.0
2018-Jan-12 02:24N 34°43' E 135°26'0 0.0
2018-Jan-12 02:00N 34°43' E 135°26'0 0.0
2018-Jan-12 01:30N 34°43' E 135°26'0 0.0
2018-Jan-12 01:00N 34°43' E 135°26'0 0.0
2018-Jan-12 00:28N 34°43' E 135°26'0 0.0
2018-Jan-11 23:59N 34°43' E 135°26'0 0.0
2018-Jan-11 23:26N 34°43' E 135°26'0 0.0
2018-Jan-11 22:58N 34°43' E 135°26'2 3.7
2018-Jan-11 22:31N 34°42' E 135°24'0 0.3
2018-Jan-11 22:00N 34°41' E 135°24'0 0.0
2018-Jan-11 21:30N 34°41' E 135°24'0 0.0
2018-Jan-11 21:00N 34°41' E 135°24'0 0.1
2018-Jan-11 20:30N 34°41' E 135°24'0 0.1
2018-Jan-11 20:00N 34°41' E 135°24'0 0.0
2018-Jan-11 19:30N 34°41' E 135°24'0 0.0
2018-Jan-11 19:00N 34°41' E 135°24'0 0.0
2018-Jan-11 18:30N 34°41' E 135°24'0 0.1
2018-Jan-11 18:00N 34°41' E 135°24'0 0.1
2018-Jan-11 17:28N 34°41' E 135°24'3 6.4
2018-Jan-11 17:00N 34°40' E 135°21'510.4
2018-Jan-11 16:30N 34°38' E 135°15'510.5
2018-Jan-11 16:00N 34°37' E 135°09'510.1
2018-Jan-11 15:30N 34°37' E 135°03'610.8
2018-Jan-11 14:57N 34°38' E 134°56'11 1.1
2018-Jan-11 04:55N 34°43' E 134°43'510.9
2018-Jan-11 04:30N 34°40' E 134°48'610.8
2018-Jan-11 03:59N 34°38' E 134°54'510.6
2018-Jan-11 03:28N 34°38' E 135°01'510.1
2018-Jan-11 03:00N 34°37' E 135°06'510.5
2018-Jan-11 02:30N 34°38' E 135°13'510.8
2018-Jan-11 02:00N 34°39' E 135°19'510.5
2018-Jan-11 01:30N 34°42' E 135°24'2 3.2
2018-Jan-11 00:59N 34°43' E 135°26'0 0.0
2018-Jan-11 00:29N 34°43' E 135°26'0 0.0
2018-Jan-10 23:59N 34°43' E 135°26'0 0.0
2018-Jan-10 23:29N 34°43' E 135°26'0 0.0
2018-Jan-10 22:59N 34°43' E 135°26'2 2.8
2018-Jan-10 22:22N 34°41' E 135°24'0 0.0
2018-Jan-10 21:58N 34°41' E 135°24'0 0.0
2018-Jan-10 21:28N 34°41' E 135°24'0 0.0
2018-Jan-10 20:58N 34°41' E 135°24'0 0.0
2018-Jan-10 20:28N 34°41' E 135°24'0 0.1
2018-Jan-10 19:58N 34°41' E 135°24'0 0.0
2018-Jan-10 19:28N 34°41' E 135°24'0 0.0
2018-Jan-10 18:55N 34°41' E 135°24'  
Track history (hours):
 
Tides and Currents Weather Stations Pressure Air Temp Water Temp Dewpoint Dewpoint Depression Visibility Wind Speed Wind Dir Waves Ship Positions

Yukichifuku

Last reported at 2018-Jan-20 18:30 UTC. Time now 2018-Jan-20 18:33 UTC.
Position N 34°39' E 135°20'.

Length 49 m.

Type: Cargo ship. MMSI: 431005126.

Date/timePositionNaut miles runAvg speedWind from/ knotsBaromVisibWave heightAir tempDewpointWater temp
2018-Jan-20 18:30N 34°39' E 135°20'510.0
2018-Jan-20 18:00N 34°38' E 135°14'510.1
2018-Jan-20 17:30N 34°37' E 135°08'611.4
2018-Jan-20 17:00N 34°38' E 135°01'510.9
2018-Jan-20 16:30N 34°37' E 134°55'610.9
2018-Jan-20 15:59N 34°40' E 134°49'5 0.8
2018-Jan-20 10:05N 34°43' E 134°44'111.0
2018-Jan-20 09:59N 34°42' E 134°45'511.0
2018-Jan-20 09:30N 34°39' E 134°51'510.6
2018-Jan-20 09:00N 34°38' E 134°56'510.0
2018-Jan-20 08:30N 34°37' E 135°03'611.3
2018-Jan-20 08:00N 34°37' E 135°09'510.9
2018-Jan-20 07:30N 34°38' E 135°16'510.8
2018-Jan-20 07:00N 34°40' E 135°22'4 7.5
2018-Jan-20 06:27N 34°43' E 135°26'0 0.0
2018-Jan-20 05:58N 34°43' E 135°26'0 0.0
2018-Jan-20 05:28N 34°43' E 135°26'0 0.0
2018-Jan-20 04:58N 34°43' E 135°26'0 0.0
2018-Jan-20 04:28N 34°43' E 135°26'0 0.0
2018-Jan-20 03:58N 34°43' E 135°26'0 0.0
2018-Jan-20 03:20N 34°43' E 135°26'2 6.2
2018-Jan-20 03:00N 34°41' E 135°24'510.0
2018-Jan-20 02:30N 34°39' E 135°19'510.2
2018-Jan-20 02:00N 34°37' E 135°13'5 9.6
2018-Jan-20 01:30N 34°36' E 135°07'4 8.3
2018-Jan-20 01:00N 34°36' E 135°02'3 6.1
2018-Jan-20 00:30N 34°37' E 134°58'4 7.9
2018-Jan-20 00:00N 34°37' E 134°54'9 0.5
2018-Jan-19 05:35N 34°43' E 134°44'211.0
2018-Jan-19 05:25N 34°42' E 134°46'410.3
2018-Jan-19 05:00N 34°40' E 134°51'5 9.2
2018-Jan-19 04:30N 34°38' E 134°56'611.3
2018-Jan-19 04:00N 34°37' E 135°03'510.9
2018-Jan-19 03:30N 34°37' E 135°09'611.6
2018-Jan-19 03:00N 34°38' E 135°16'611.1
2018-Jan-19 02:30N 34°40' E 135°23'4 6.6
2018-Jan-19 01:57N 34°43' E 135°26'0 0.0
2018-Jan-19 01:30N 34°43' E 135°26'0 0.0
2018-Jan-19 00:56N 34°43' E 135°26'0 0.0
2018-Jan-19 00:29N 34°43' E 135°26'0 0.0
2018-Jan-18 23:59N 34°43' E 135°26'0 0.0
2018-Jan-18 23:29N 34°43' E 135°26'0 0.0
2018-Jan-18 22:59N 34°43' E 135°26'0 0.0
2018-Jan-18 22:26N 34°43' E 135°26'0 0.0
2018-Jan-18 21:56N 34°43' E 135°26'0 0.0
2018-Jan-18 21:29N 34°43' E 135°26'0 0.0
2018-Jan-18 20:59N 34°43' E 135°26'0 0.0
2018-Jan-18 20:26N 34°43' E 135°26'0 0.0
2018-Jan-18 19:59N 34°43' E 135°26'0 0.0
2018-Jan-18 19:29N 34°43' E 135°26'0 0.0
2018-Jan-18 18:59N 34°43' E 135°26'0 0.0
2018-Jan-18 18:26N 34°43' E 135°26'0 0.0
2018-Jan-18 17:59N 34°43' E 135°26'0 0.0
2018-Jan-18 17:29N 34°43' E 135°26'0 0.0
2018-Jan-18 16:59N 34°43' E 135°26'0 0.0
2018-Jan-18 16:29N 34°43' E 135°26'0 0.0
2018-Jan-18 15:53N 34°43' E 135°26'0 0.0
2018-Jan-18 15:29N 34°43' E 135°26'0 0.0
2018-Jan-18 14:59N 34°43' E 135°26'0 0.0
2018-Jan-18 14:29N 34°43' E 135°26'0 0.0
2018-Jan-18 13:59N 34°43' E 135°26'0 0.0
2018-Jan-18 13:26N 34°43' E 135°26'0 0.0
2018-Jan-18 12:59N 34°43' E 135°26'0 0.0
2018-Jan-18 12:29N 34°43' E 135°26'0 0.0
2018-Jan-18 11:59N 34°43' E 135°26'0 0.0
2018-Jan-18 11:29N 34°43' E 135°26'0 0.0
2018-Jan-18 10:55N 34°43' E 135°26'0 0.0
2018-Jan-18 10:28N 34°43' E 135°26'0 0.0
2018-Jan-18 10:00N 34°43' E 135°26'2 5.0
2018-Jan-18 09:30N 34°41' E 135°24'510.2
2018-Jan-18 09:00N 34°39' E 135°18'510.4
2018-Jan-18 08:30N 34°37' E 135°12'510.4
2018-Jan-18 08:00N 34°36' E 135°06'612.3
2018-Jan-18 07:30N 34°37' E 134°59'911.6
2018-Jan-18 06:46N 34°40' E 134°49'  
2018-Jan-12 14:59N 34°38' E 134°52'28 2.9
2018-Jan-12 05:10N 34°43' E 135°26'0 0.0
2018-Jan-12 04:58N 34°43' E 135°26'0 0.0
2018-Jan-12 04:23N 34°43' E 135°26'0 0.0
2018-Jan-12 03:53N 34°43' E 135°26'0 0.0
2018-Jan-12 03:29N 34°43' E 135°26'0 0.0
2018-Jan-12 02:59N 34°43' E 135°26'0 0.0
2018-Jan-12 02:24N 34°43' E 135°26'0 0.0
2018-Jan-12 02:00N 34°43' E 135°26'0 0.0
2018-Jan-12 01:30N 34°43' E 135°26'0 0.0
2018-Jan-12 01:00N 34°43' E 135°26'0 0.0
2018-Jan-12 00:28N 34°43' E 135°26'0 0.0
2018-Jan-11 23:59N 34°43' E 135°26'0 0.0
2018-Jan-11 23:26N 34°43' E 135°26'0 0.0
2018-Jan-11 22:58N 34°43' E 135°26'2 3.7
2018-Jan-11 22:31N 34°42' E 135°24'0 0.3
2018-Jan-11 22:00N 34°41' E 135°24'0 0.0
2018-Jan-11 21:30N 34°41' E 135°24'0 0.0
2018-Jan-11 21:00N 34°41' E 135°24'0 0.1
2018-Jan-11 20:30N 34°41' E 135°24'0 0.1
2018-Jan-11 20:00N 34°41' E 135°24'0 0.0
2018-Jan-11 19:30N 34°41' E 135°24'0 0.0
2018-Jan-11 19:00N 34°41' E 135°24'0 0.0
2018-Jan-11 18:30N 34°41' E 135°24'0 0.1
2018-Jan-11 18:00N 34°41' E 135°24'0 0.1
2018-Jan-11 17:28N 34°41' E 135°24'3 6.4
2018-Jan-11 17:00N 34°40' E 135°21'510.4
2018-Jan-11 16:30N 34°38' E 135°15'510.5
2018-Jan-11 16:00N 34°37' E 135°09'510.1
2018-Jan-11 15:30N 34°37' E 135°03'610.8
2018-Jan-11 14:57N 34°38' E 134°56'11 1.1
2018-Jan-11 04:55N 34°43' E 134°43'510.9
2018-Jan-11 04:30N 34°40' E 134°48'610.8
2018-Jan-11 03:59N 34°38' E 134°54'510.6
2018-Jan-11 03:28N 34°38' E 135°01'510.1
2018-Jan-11 03:00N 34°37' E 135°06'510.5
2018-Jan-11 02:30N 34°38' E 135°13'510.8
2018-Jan-11 02:00N 34°39' E 135°19'510.5
2018-Jan-11 01:30N 34°42' E 135°24'2 3.2
2018-Jan-11 00:59N 34°43' E 135°26'0 0.0
2018-Jan-11 00:29N 34°43' E 135°26'0 0.0
2018-Jan-10 23:59N 34°43' E 135°26'0 0.0
2018-Jan-10 23:29N 34°43' E 135°26'0 0.0
2018-Jan-10 22:59N 34°43' E 135°26'2 2.8
2018-Jan-10 22:22N 34°41' E 135°24'0 0.0
2018-Jan-10 21:58N 34°41' E 135°24'0 0.0
2018-Jan-10 21:28N 34°41' E 135°24'0 0.0
2018-Jan-10 20:58N 34°41' E 135°24'0 0.0
2018-Jan-10 20:28N 34°41' E 135°24'0 0.1
2018-Jan-10 19:58N 34°41' E 135°24'0 0.0
2018-Jan-10 19:28N 34°41' E 135°24'0 0.0
2018-Jan-10 18:55N 34°41' E 135°24'  

Dump ship's entire track history